sensor_id;sensor_type;location;lat;lon;timestamp;pressure;altitude;pressure_sealevel;temperature;humidity
42003;BME280;27693;50.506;30.832;2023-01-28T00:00:08;100186.22;;;-1.11;83.70
42003;BME280;27693;50.506;30.832;2023-01-28T00:01:13;100174.20;;;-1.22;83.72
42003;BME280;27693;50.506;30.832;2023-01-28T00:02:16;100174.20;;;-1.22;83.72
42003;BME280;27693;50.506;30.832;2023-01-28T00:03:19;100178.36;;;-1.30;83.78
42003;BME280;27693;50.506;30.832;2023-01-28T00:04:22;100175.80;;;-1.33;83.98
42003;BME280;27693;50.506;30.832;2023-01-28T00:05:24;100182.69;;;-1.23;84.30
42003;BME280;27693;50.506;30.832;2023-01-28T00:06:27;100181.12;;;-1.11;84.78
42003;BME280;27693;50.506;30.832;2023-01-28T00:07:29;100183.67;;;-1.11;84.21
42003;BME280;27693;50.506;30.832;2023-01-28T00:08:32;100177.73;;;-1.07;84.54
42003;BME280;27693;50.506;30.832;2023-01-28T00:09:38;100170.95;;;-1.07;84.36
42003;BME280;27693;50.506;30.832;2023-01-28T00:10:40;100173.51;;;-1.05;84.44
42003;BME280;27693;50.506;30.832;2023-01-28T00:11:52;100171.75;;;-1.11;83.66
42003;BME280;27693;50.506;30.832;2023-01-28T00:12:55;100174.12;;;-1.31;83.94
42003;BME280;27693;50.506;30.832;2023-01-28T00:13:58;100178.30;;;-1.36;84.37
42003;BME280;27693;50.506;30.832;2023-01-28T00:15:00;100177.36;;;-1.46;83.83
42003;BME280;27693;50.506;30.832;2023-01-28T00:16:06;100174.80;;;-1.46;84.29
42003;BME280;27693;50.506;30.832;2023-01-28T00:17:09;100175.68;;;-1.46;84.62
42003;BME280;27693;50.506;30.832;2023-01-28T00:18:11;100175.73;;;-1.39;84.78
42003;BME280;27693;50.506;30.832;2023-01-28T00:19:14;100179.17;;;-1.37;85.06
42003;BME280;27693;50.506;30.832;2023-01-28T00:20:17;100182.58;;;-1.35;84.94
42003;BME280;27693;50.506;30.832;2023-01-28T00:21:19;100174.02;;;-1.40;84.53
42003;BME280;27693;50.506;30.832;2023-01-28T00:22:22;100184.13;;;-1.50;84.46
42003;BME280;27693;50.506;30.832;2023-01-28T00:23:25;100184.94;;;-1.55;84.55
42003;BME280;27693;50.506;30.832;2023-01-28T00:24:28;100185.84;;;-1.49;85.19
42003;BME280;27693;50.506;30.832;2023-01-28T00:25:30;100180.73;;;-1.49;84.94
42003;BME280;27693;50.506;30.832;2023-01-28T00:26:32;100179.79;;;-1.57;84.71
42003;BME280;27693;50.506;30.832;2023-01-28T00:27:53;100185.70;;;-1.61;84.70
42003;BME280;27693;50.506;30.832;2023-01-28T00:28:55;100192.48;;;-1.63;84.61
42003;BME280;27693;50.506;30.832;2023-01-28T00:29:59;100182.27;;;-1.63;84.58
42003;BME280;27693;50.506;30.832;2023-01-28T00:31:10;100185.76;;;-1.58;85.23
42003;BME280;27693;50.506;30.832;2023-01-28T00:32:20;100183.35;;;-1.42;84.72
42003;BME280;27693;50.506;30.832;2023-01-28T00:33:22;100180.66;;;-1.58;84.88
42003;BME280;27693;50.506;30.832;2023-01-28T00:34:24;100182.33;;;-1.60;84.51
42003;BME280;27693;50.506;30.832;2023-01-28T00:35:26;100177.30;;;-1.51;84.82
42003;BME280;27693;50.506;30.832;2023-01-28T00:36:30;100173.14;;;-1.42;85.05
42003;BME280;27693;50.506;30.832;2023-01-28T00:37:33;100170.58;;;-1.46;84.91
42003;BME280;27693;50.506;30.832;2023-01-28T00:38:37;100167.20;;;-1.40;84.90
42003;BME280;27693;50.506;30.832;2023-01-28T00:39:40;100173.14;;;-1.42;84.70
42003;BME280;27693;50.506;30.832;2023-01-28T00:40:42;100170.70;;;-1.33;85.24
42003;BME280;27693;50.506;30.832;2023-01-28T00:41:45;100167.31;;;-1.29;84.89
42003;BME280;27693;50.506;30.832;2023-01-28T00:42:47;100163.97;;;-1.25;84.38
42003;BME280;27693;50.506;30.832;2023-01-28T00:43:50;100163.97;;;-1.25;84.38
42003;BME280;27693;50.506;30.832;2023-01-28T00:44:52;100171.70;;;-1.16;84.88
42003;BME280;27693;50.506;30.832;2023-01-28T00:45:55;100168.31;;;-1.15;84.84
42003;BME280;27693;50.506;30.832;2023-01-28T00:46:59;100176.06;;;-1.05;84.85
42003;BME280;27693;50.506;30.832;2023-01-28T00:48:01;100164.96;;;-1.10;84.31
42003;BME280;27693;50.506;30.832;2023-01-28T00:49:03;100172.67;;;-1.04;84.14
42003;BME280;27693;50.506;30.832;2023-01-28T00:50:06;100176.08;;;-1.02;83.89
42003;BME280;27693;50.506;30.832;2023-01-28T00:51:09;100174.25;;;-1.16;83.33
42003;BME280;27693;50.506;30.832;2023-01-28T00:52:12;100154.49;;;-1.37;83.27
42003;BME280;27693;50.506;30.832;2023-01-28T00:53:15;100154.49;;;-1.37;83.27
42003;BME280;27693;50.506;30.832;2023-01-28T00:54:19;100173.18;;;-1.41;83.37
42003;BME280;27693;50.506;30.832;2023-01-28T00:55:22;100178.17;;;-1.52;83.45
42003;BME280;27693;50.506;30.832;2023-01-28T00:56:25;100170.58;;;-1.46;84.04
42003;BME280;27693;50.506;30.832;2023-01-28T00:57:27;100175.75;;;-1.38;84.71
42003;BME280;27693;50.506;30.832;2023-01-28T00:58:29;100177.39;;;-1.45;83.92
42003;BME280;27693;50.506;30.832;2023-01-28T00:59:31;100179.89;;;-1.49;84.41
42003;BME280;27693;50.506;30.832;2023-01-28T01:00:34;100176.58;;;-1.40;85.04
42003;BME280;27693;50.506;30.832;2023-01-28T01:01:36;100169.86;;;-1.32;85.11
42003;BME280;27693;50.506;30.832;2023-01-28T01:02:39;100178.35;;;-1.33;84.76
42003;BME280;27693;50.506;30.832;2023-01-28T01:03:44;100178.34;;;-1.35;84.89
42003;BME280;27693;50.506;30.832;2023-01-28T01:04:46;100175.80;;;-1.33;85.11
42003;BME280;27693;50.506;30.832;2023-01-28T01:05:50;100180.13;;;-1.27;85.10
42003;BME280;27693;50.506;30.832;2023-01-28T01:06:52;100186.02;;;-1.33;84.76
42003;BME280;27693;50.506;30.832;2023-01-28T01:07:55;100177.45;;;-1.38;84.66
42003;BME280;27693;50.506;30.832;2023-01-28T01:08:56;100174.91;;;-1.38;84.63
42003;BME280;27693;50.506;30.832;2023-01-28T01:10:02;100182.64;;;-1.29;84.83
42003;BME280;27693;50.506;30.832;2023-01-28T01:11:06;100182.64;;;-1.29;84.83
42003;BME280;27693;50.506;30.832;2023-01-28T01:12:09;100175.91;;;-1.24;84.57
42003;BME280;27693;50.506;30.832;2023-01-28T01:13:10;100173.41;;;-1.16;84.59
42003;BME280;27693;50.506;30.832;2023-01-28T01:14:15;100174.30;;;-1.09;84.61
42003;BME280;27693;50.506;30.832;2023-01-28T01:15:18;100172.63;;;-1.07;84.20
42003;BME280;27693;50.506;30.832;2023-01-28T01:16:28;100159.08;;;-1.00;84.64
42003;BME280;27693;50.506;30.832;2023-01-28T01:17:30;100165.07;;;-0.95;84.48
42003;BME280;27693;50.506;30.832;2023-01-28T01:18:33;100156.56;;;-0.95;84.46
42003;BME280;27693;50.506;30.832;2023-01-28T01:19:36;100159.02;;;-1.06;83.63
42003;BME280;27693;50.506;30.832;2023-01-28T01:20:40;100159.91;;;-1.03;83.98
42003;BME280;27693;50.506;30.832;2023-01-28T01:21:44;100164.09;;;-1.11;83.36
42003;BME280;27693;50.506;30.832;2023-01-28T01:22:49;100159.77;;;-1.18;83.35
42003;BME280;27693;50.506;30.832;2023-01-28T01:23:52;100153.72;;;-1.28;83.28
42003;BME280;27693;50.506;30.832;2023-01-28T01:24:56;100158.87;;;-1.22;83.94
42003;BME280;27693;50.506;30.832;2023-01-28T01:25:58;100156.33;;;-1.22;83.83
42003;BME280;27693;50.506;30.832;2023-01-28T01:27:01;100153.81;;;-1.20;83.91
42003;BME280;27693;50.506;30.832;2023-01-28T01:28:03;100154.59;;;-1.26;83.39
42003;BME280;27693;50.506;30.832;2023-01-28T01:29:05;100151.22;;;-1.22;83.42
42003;BME280;27693;50.506;30.832;2023-01-28T01:30:10;100157.20;;;-1.20;83.41
42003;BME280;27693;50.506;30.832;2023-01-28T01:31:15;100158.98;;;-1.09;83.96
42003;BME280;27693;50.506;30.832;2023-01-28T01:32:18;100159.06;;;-1.03;83.56
42003;BME280;27693;50.506;30.832;2023-01-28T01:33:21;100160.75;;;-1.02;83.60
42003;BME280;27693;50.506;30.832;2023-01-28T01:34:24;100145.18;;;-1.30;82.81
42003;BME280;27693;50.506;30.832;2023-01-28T01:35:26;100145.18;;;-1.30;82.81
42003;BME280;27693;50.506;30.832;2023-01-28T01:36:30;100162.16;;;-1.35;82.23
42003;BME280;27693;50.506;30.832;2023-01-28T01:37:35;100164.70;;;-1.35;82.92
42003;BME280;27693;50.506;30.832;2023-01-28T01:38:37;100164.66;;;-1.40;82.92
42003;BME280;27693;50.506;30.832;2023-01-28T01:39:41;100163.88;;;-1.34;83.25
42003;BME280;27693;50.506;30.832;2023-01-28T01:40:44;100166.43;;;-1.33;82.88
42003;BME280;27693;50.506;30.832;2023-01-28T01:41:46;100157.98;;;-1.27;82.90
42003;BME280;27693;50.506;30.832;2023-01-28T01:42:48;100159.61;;;-1.35;82.58
42003;BME280;27693;50.506;30.832;2023-01-28T01:43:58;100166.32;;;-1.43;82.76
42003;BME280;27693;50.506;30.832;2023-01-28T01:45:03;100167.03;;;-1.57;82.59
42003;BME280;27693;50.506;30.832;2023-01-28T01:46:07;100165.12;;;-1.77;82.94
42003;BME280;27693;50.506;30.832;2023-01-28T01:47:10;100166.76;;;-1.83;83.44
42003;BME280;27693;50.506;30.832;2023-01-28T01:48:20;100163.38;;;-1.81;84.07
42003;BME280;27693;50.506;30.832;2023-01-28T01:49:26;100157.34;;;-1.87;84.00
42003;BME280;27693;50.506;30.832;2023-01-28T01:50:35;100158.16;;;-1.90;84.30
42003;BME280;27693;50.506;30.832;2023-01-28T01:51:39;100157.39;;;-1.83;84.64
42003;BME280;27693;50.506;30.832;2023-01-28T01:52:41;100154.96;;;-1.73;85.26
42003;BME280;27693;50.506;30.832;2023-01-28T01:53:47;100156.56;;;-1.82;84.48
42003;BME280;27693;50.506;30.832;2023-01-28T05:41:44;100188.66;;;-2.59;87.85
42003;BME280;27693;50.506;30.832;2023-01-28T05:42:47;100185.36;;;-2.53;88.02
42003;BME280;27693;50.506;30.832;2023-01-28T05:43:57;100186.91;;;-2.63;87.16
42003;BME280;27693;50.506;30.832;2023-01-28T05:45:06;100189.39;;;-2.66;86.95
42003;BME280;27693;50.506;30.832;2023-01-28T05:46:10;100183.39;;;-2.70;86.75
42003;BME280;27693;50.506;30.832;2023-01-28T05:47:28;100184.36;;;-2.63;87.22
42003;BME280;27693;50.506;30.832;2023-01-28T05:48:39;100181.10;;;-2.53;87.39
42003;BME280;27693;50.506;30.832;2023-01-28T05:49:46;100176.21;;;-2.41;87.48
42003;BME280;27693;50.506;30.832;2023-01-28T05:50:50;100188.17;;;-2.33;87.36
42003;BME280;27693;50.506;30.832;2023-01-28T05:52:00;100180.83;;;-2.12;86.53
42003;BME280;27693;50.506;30.832;2023-01-28T05:53:05;100181.58;;;-2.19;85.67
42003;BME280;27693;50.506;30.832;2023-01-28T05:54:09;100175.55;;;-2.27;84.70
42003;BME280;27693;50.506;30.832;2023-01-28T05:55:11;100190.03;;;-2.23;84.63
42003;BME280;27693;50.506;30.832;2023-01-28T05:56:14;100178.26;;;-2.15;84.37
42003;BME280;27693;50.506;30.832;2023-01-28T05:57:17;100179.92;;;-2.17;83.59
42003;BME280;27693;50.506;30.832;2023-01-28T05:58:20;100182.44;;;-2.20;83.15
42003;BME280;27693;50.506;30.832;2023-01-28T05:59:22;100178.26;;;-2.15;83.25
42003;BME280;27693;50.506;30.832;2023-01-28T06:00:27;100179.08;;;-2.17;83.23
42003;BME280;27693;50.506;30.832;2023-01-28T06:01:30;100185.08;;;-2.14;83.75
42003;BME280;27693;50.506;30.832;2023-01-28T06:02:33;100186.77;;;-2.13;84.10
42003;BME280;27693;50.506;30.832;2023-01-28T06:03:35;100182.56;;;-2.09;84.54
42003;BME280;27693;50.506;30.832;2023-01-28T06:04:37;100188.48;;;-2.12;84.31
42003;BME280;27693;50.506;30.832;2023-01-28T06:05:40;100179.01;;;-2.22;84.27
42003;BME280;27693;50.506;30.832;2023-01-28T06:06:43;100179.76;;;-2.29;84.21
42003;BME280;27693;50.506;30.832;2023-01-28T06:07:46;100173.77;;;-2.31;84.28
42003;BME280;27693;50.506;30.832;2023-01-28T06:08:49;100182.23;;;-2.34;84.56
42003;BME280;27693;50.506;30.832;2023-01-28T06:09:54;100182.91;;;-2.46;84.42
42003;BME280;27693;50.506;30.832;2023-01-28T06:10:57;100172.63;;;-2.52;84.90
42003;BME280;27693;50.506;30.832;2023-01-28T06:11:59;100176.84;;;-2.54;85.25
42003;BME280;27693;50.506;30.832;2023-01-28T06:13:02;100177.80;;;-2.47;85.87
42003;BME280;27693;50.506;30.832;2023-01-28T06:14:11;100182.97;;;-2.43;85.70
42003;BME280;27693;50.506;30.832;2023-01-28T06:15:19;100179.78;;;-2.26;86.40
42003;BME280;27693;50.506;30.832;2023-01-28T06:16:28;100183.45;;;-2.05;86.09
42003;BME280;27693;50.506;30.832;2023-01-28T06:17:35;100179.84;;;-2.23;84.85
42003;BME280;27693;50.506;30.832;2023-01-28T06:18:42;100181.42;;;-2.31;84.35
42003;BME280;27693;50.506;30.832;2023-01-28T06:19:45;100177.21;;;-2.29;84.53
42003;BME280;27693;50.506;30.832;2023-01-28T06:20:49;100179.78;;;-2.26;84.48
42003;BME280;27693;50.506;30.832;2023-01-28T06:21:52;100181.66;;;-2.13;84.57
42003;BME280;27693;50.506;30.832;2023-01-28T06:22:55;100175.05;;;-1.98;85.09
42003;BME280;27693;50.506;30.832;2023-01-28T06:23:58;100177.66;;;-1.95;84.97
42003;BME280;27693;50.506;30.832;2023-01-28T06:25:00;100169.95;;;-1.98;84.93
42003;BME280;27693;50.506;30.832;2023-01-28T06:26:02;100173.23;;;-2.09;84.11
42003;BME280;27693;50.506;30.832;2023-01-28T06:27:05;100174.82;;;-2.17;83.89
42003;BME280;27693;50.506;30.832;2023-01-28T06:28:07;100179.89;;;-2.20;84.08
42003;BME280;27693;50.506;30.832;2023-01-28T06:29:11;100189.43;;;-2.05;84.44
42003;BME280;27693;50.506;30.832;2023-01-28T06:30:15;100189.36;;;-2.10;84.27
42003;BME280;27693;50.506;30.832;2023-01-28T06:31:18;100177.46;;;-2.09;84.15
42003;BME280;27693;50.506;30.832;2023-01-28T06:32:20;100180.88;;;-2.09;83.16
42003;BME280;27693;50.506;30.832;2023-01-28T06:33:24;100183.45;;;-2.05;82.58
42003;BME280;27693;50.506;30.832;2023-01-28T06:34:27;100173.39;;;-1.96;82.32
42003;BME280;27693;50.506;30.832;2023-01-28T06:35:29;100178.56;;;-1.90;81.75
42003;BME280;27693;50.506;30.832;2023-01-28T06:36:31;100175.11;;;-1.94;80.95
42003;BME280;27693;50.506;30.832;2023-01-28T06:37:34;100172.64;;;-1.87;81.16
42003;BME280;27693;50.506;30.832;2023-01-28T06:38:36;100173.53;;;-1.84;80.60
42003;BME280;27693;50.506;30.832;2023-01-28T06:39:38;100176.27;;;-1.68;80.74
42003;BME280;27693;50.506;30.832;2023-01-28T06:40:41;100183.10;;;-1.66;80.50
42003;BME280;27693;50.506;30.832;2023-01-28T06:41:43;100185.59;;;-1.70;79.77
42003;BME280;27693;50.506;30.832;2023-01-28T06:42:46;100186.48;;;-1.67;79.41
42003;BME280;27693;50.506;30.832;2023-01-28T06:43:49;100189.98;;;-1.60;79.33
42003;BME280;27693;50.506;30.832;2023-01-28T06:44:52;100192.59;;;-1.55;79.24
42003;BME280;27693;50.506;30.832;2023-01-28T06:45:55;100194.27;;;-1.56;78.74
42003;BME280;27693;50.506;30.832;2023-01-28T06:46:58;100196.63;;;-1.71;78.22
42003;BME280;27693;50.506;30.832;2023-01-28T06:48:00;100188.88;;;-1.82;78.61
42003;BME280;27693;50.506;30.832;2023-01-28T06:49:03;100193.77;;;-1.99;78.43
42003;BME280;27693;50.506;30.832;2023-01-28T06:50:08;100194.59;;;-2.00;78.79
42003;BME280;27693;50.506;30.832;2023-01-28T06:51:11;100195.27;;;-2.14;79.15
42003;BME280;27693;50.506;30.832;2023-01-28T06:52:13;100192.75;;;-2.11;79.92
42003;BME280;27693;50.506;30.832;2023-01-28T06:53:17;100195.22;;;-2.17;79.80
42003;BME280;27693;50.506;30.832;2023-01-28T06:54:19;100194.97;;;-2.35;80.09
42003;BME280;27693;50.506;30.832;2023-01-28T06:55:21;100189.95;;;-2.29;80.71
42003;BME280;27693;50.506;30.832;2023-01-28T06:56:23;100181.50;;;-2.25;80.74
42003;BME280;27693;50.506;30.832;2023-01-28T06:57:25;100182.14;;;-2.42;80.79
42003;BME280;27693;50.506;30.832;2023-01-28T06:58:27;100181.39;;;-2.34;81.42
42003;BME280;27693;50.506;30.832;2023-01-28T06:59:29;100186.57;;;-2.28;82.84
42003;BME280;27693;50.506;30.832;2023-01-28T07:00:32;100186.57;;;-2.28;82.84
42003;BME280;27693;50.506;30.832;2023-01-28T07:01:35;100186.68;;;-2.19;83.87
42003;BME280;27693;50.506;30.832;2023-01-28T07:02:39;100183.19;;;-2.27;83.29
42003;BME280;27693;50.506;30.832;2023-01-28T07:03:41;100190.09;;;-2.20;83.55
42003;BME280;27693;50.506;30.832;2023-01-28T07:04:43;100195.22;;;-2.17;83.85
42003;BME280;27693;50.506;30.832;2023-01-28T07:05:45;100194.31;;;-2.20;84.03
42003;BME280;27693;50.506;30.832;2023-01-28T07:06:48;100188.40;;;-2.18;83.87
42003;BME280;27693;50.506;30.832;2023-01-28T07:07:50;100188.48;;;-2.12;83.87
42003;BME280;27693;50.506;30.832;2023-01-28T07:08:53;100189.42;;;-2.06;83.87
42003;BME280;27693;50.506;30.832;2023-01-28T07:09:55;100185.97;;;-2.10;82.77
42003;BME280;27693;50.506;30.832;2023-01-28T07:10:58;100196.94;;;-2.16;82.23
42003;BME280;27693;50.506;30.832;2023-01-28T07:12:01;100195.87;;;-2.32;81.57
42003;BME280;27693;50.506;30.832;2023-01-28T07:13:07;100194.97;;;-2.35;81.54
42003;BME280;27693;50.506;30.832;2023-01-28T07:14:09;100198.34;;;-2.36;81.69
42003;BME280;27693;50.506;30.832;2023-01-28T07:15:11;100203.61;;;-2.24;81.84
42003;BME280;27693;50.506;30.832;2023-01-28T07:16:16;100207.13;;;-2.16;81.79
42003;BME280;27693;50.506;30.832;2023-01-28T07:17:18;100200.39;;;-2.11;81.59
42003;BME280;27693;50.506;30.832;2023-01-28T07:18:21;100200.38;;;-2.14;81.03
42003;BME280;27693;50.506;30.832;2023-01-28T07:19:23;100205.57;;;-2.04;81.02
42003;BME280;27693;50.506;30.832;2023-01-28T07:20:27;100204.80;;;-2.00;80.86
42003;BME280;27693;50.506;30.832;2023-01-28T07:21:29;100198.43;;;-2.30;80.64
42003;BME280;27693;50.506;30.832;2023-01-28T07:22:31;100194.09;;;-2.36;81.58
42003;BME280;27693;50.506;30.832;2023-01-28T07:23:34;100201.03;;;-2.27;82.73
42003;BME280;27693;50.506;30.832;2023-01-28T07:24:37;100206.14;;;-2.26;83.16
42003;BME280;27693;50.506;30.832;2023-01-28T07:25:40;100193.39;;;-2.27;83.86
42003;BME280;27693;50.506;30.832;2023-01-28T07:26:42;100198.67;;;-2.12;84.46
42003;BME280;27693;50.506;30.832;2023-01-28T07:27:49;100196.34;;;-1.96;84.64
42003;BME280;27693;50.506;30.832;2023-01-28T07:28:53;100193.94;;;-1.84;84.96
42003;BME280;27693;50.506;30.832;2023-01-28T07:29:56;100192.39;;;-1.72;85.35
42003;BME280;27693;50.506;30.832;2023-01-28T07:30:58;100199.30;;;-1.62;85.30
42003;BME280;27693;50.506;30.832;2023-01-28T07:32:01;100193.16;;;-1.80;83.98
42003;BME280;27693;50.506;30.832;2023-01-28T07:33:04;100182.19;;;-1.72;83.95
42003;BME280;27693;50.506;30.832;2023-01-28T07:34:08;100184.81;;;-1.66;84.02
42003;BME280;27693;50.506;30.832;2023-01-28T07:35:11;100178.89;;;-1.62;83.78
42003;BME280;27693;50.506;30.832;2023-01-28T07:36:15;100179.78;;;-1.58;83.83
42003;BME280;27693;50.506;30.832;2023-01-28T07:37:17;100183.09;;;-1.67;82.79
42003;BME280;27693;50.506;30.832;2023-01-28T07:38:20;100188.12;;;-1.73;82.47
42003;BME280;27693;50.506;30.832;2023-01-28T07:39:22;100178.57;;;-1.88;82.14
42003;BME280;27693;50.506;30.832;2023-01-28T07:40:25;100175.23;;;-1.84;82.64
42003;BME280;27693;50.506;30.832;2023-01-28T07:41:28;100171.09;;;-1.76;83.26
42003;BME280;27693;50.506;30.832;2023-01-28T07:42:33;100172.82;;;-1.73;83.02
42003;BME280;27693;50.506;30.832;2023-01-28T07:43:38;100174.61;;;-1.65;83.54
42003;BME280;27693;50.506;30.832;2023-01-28T07:44:41;100173.79;;;-1.62;83.09
42003;BME280;27693;50.506;30.832;2023-01-28T07:45:44;100175.45;;;-1.64;82.74
42003;BME280;27693;50.506;30.832;2023-01-28T07:46:49;100175.56;;;-1.56;83.49
42003;BME280;27693;50.506;30.832;2023-01-28T07:47:58;100172.96;;;-1.59;82.91
42003;BME280;27693;50.506;30.832;2023-01-28T07:48:58;100170.45;;;-1.58;82.94
42003;BME280;27693;50.506;30.832;2023-01-28T07:50:01;100170.28;;;-1.70;82.02
42003;BME280;27693;50.506;30.832;2023-01-28T07:51:03;100175.39;;;-1.70;82.14
42003;BME280;27693;50.506;30.832;2023-01-28T07:52:07;100177.17;;;-1.63;83.19
42003;BME280;27693;50.506;30.832;2023-01-28T07:53:10;100181.38;;;-1.67;82.67
42003;BME280;27693;50.506;30.832;2023-01-28T07:54:13;100186.34;;;-1.81;82.71
42003;BME280;27693;50.506;30.832;2023-01-28T07:55:15;100182.83;;;-1.89;82.68
42003;BME280;27693;50.506;30.832;2023-01-28T07:56:19;100184.47;;;-1.94;83.06
42003;BME280;27693;50.506;30.832;2023-01-28T07:57:21;100187.72;;;-2.04;82.95
42003;BME280;27693;50.506;30.832;2023-01-28T07:58:27;100190.34;;;-2.00;83.74
42003;BME280;27693;50.506;30.832;2023-01-28T07:59:29;100193.05;;;-1.87;85.29
42003;BME280;27693;50.506;30.832;2023-01-28T08:00:34;100198.97;;;-1.90;84.25
42003;BME280;27693;50.506;30.832;2023-01-28T08:01:37;100210.05;;;-1.88;84.19
42003;BME280;27693;50.506;30.832;2023-01-28T08:02:40;100205.84;;;-1.86;84.80
42003;BME280;27693;50.506;30.832;2023-01-28T08:03:42;100202.53;;;-1.79;84.44
42003;BME280;27693;50.506;30.832;2023-01-28T08:04:45;100202.53;;;-1.79;84.44
42003;BME280;27693;50.506;30.832;2023-01-28T08:05:49;100204.27;;;-1.74;84.95
42003;BME280;27693;50.506;30.832;2023-01-28T08:06:52;100199.22;;;-1.70;84.81
42003;BME280;27693;50.506;30.832;2023-01-28T08:07:56;100209.39;;;-1.71;84.63
42003;BME280;27693;50.506;30.832;2023-01-28T08:08:59;100206.89;;;-1.67;84.53
42003;BME280;27693;50.506;30.832;2023-01-28T08:10:01;100197.58;;;-1.63;83.72
42003;BME280;27693;50.506;30.832;2023-01-28T08:11:08;100208.66;;;-1.63;83.45
42003;BME280;27693;50.506;30.832;2023-01-28T08:12:10;100209.39;;;-1.71;82.90
42003;BME280;27693;50.506;30.832;2023-01-28T08:13:13;100201.80;;;-1.67;83.67
42003;BME280;27693;50.506;30.832;2023-01-28T08:14:16;100200.95;;;-1.67;83.11
42003;BME280;27693;50.506;30.832;2023-01-28T08:15:19;100205.15;;;-1.72;82.71
42003;BME280;27693;50.506;30.832;2023-01-28T08:16:21;100204.41;;;-1.61;83.45
42003;BME280;27693;50.506;30.832;2023-01-28T08:17:23;100207.02;;;-1.56;83.00
42003;BME280;27693;50.506;30.832;2023-01-28T08:18:26;100207.03;;;-1.54;82.97
42003;BME280;27693;50.506;30.832;2023-01-28T08:19:27;100201.09;;;-1.55;83.22
42003;BME280;27693;50.506;30.832;2023-01-28T08:20:30;100201.07;;;-1.58;83.15
42003;BME280;27693;50.506;30.832;2023-01-28T08:21:33;100196.03;;;-1.52;83.67
42003;BME280;27693;50.506;30.832;2023-01-28T08:22:36;100190.99;;;-1.46;83.09
42003;BME280;27693;50.506;30.832;2023-01-28T08:23:37;100189.45;;;-1.31;83.73
42003;BME280;27693;50.506;30.832;2023-01-28T08:24:40;100189.45;;;-1.31;83.73
42003;BME280;27693;50.506;30.832;2023-01-28T08:25:42;100201.55;;;-1.11;83.63
42003;BME280;27693;50.506;30.832;2023-01-28T08:26:47;100201.60;;;-1.05;82.97
42003;BME280;27693;50.506;30.832;2023-01-28T08:27:50;100206.77;;;-0.99;83.52
42003;BME280;27693;50.506;30.832;2023-01-28T08:28:52;100195.77;;;-0.90;83.44
42003;BME280;27693;50.506;30.832;2023-01-28T08:29:54;100196.50;;;-1.02;81.80
42003;BME280;27693;50.506;30.832;2023-01-28T08:30:59;100194.05;;;-0.91;81.99
42003;BME280;27693;50.506;30.832;2023-01-28T08:32:01;100187.27;;;-0.88;81.90
42003;BME280;27693;50.506;30.832;2023-01-28T08:33:05;100197.48;;;-0.88;81.43
42003;BME280;27693;50.506;30.832;2023-01-28T08:34:08;100194.05;;;-0.94;80.86
42003;BME280;27693;50.506;30.832;2023-01-28T08:35:10;100194.78;;;-1.06;80.47
42003;BME280;27693;50.506;30.832;2023-01-28T08:36:12;100194.67;;;-1.19;79.74
42003;BME280;27693;50.506;30.832;2023-01-28T08:37:14;100195.61;;;-1.07;79.93
42003;BME280;27693;50.506;30.832;2023-01-28T08:38:16;100193.90;;;-1.08;79.11
42003;BME280;27693;50.506;30.832;2023-01-28T08:39:18;100193.89;;;-1.11;78.38
42003;BME280;27693;50.506;30.832;2023-01-28T08:40:22;100186.13;;;-1.21;78.99
42003;BME280;27693;50.506;30.832;2023-01-28T08:41:24;100194.67;;;-1.17;79.05
42003;BME280;27693;50.506;30.832;2023-01-28T08:42:26;100187.05;;;-1.14;79.43
42003;BME280;27693;50.506;30.832;2023-01-28T08:43:28;100186.13;;;-1.21;78.31
42003;BME280;27693;50.506;30.832;2023-01-28T08:44:31;100185.24;;;-1.24;78.09
42003;BME280;27693;50.506;30.832;2023-01-28T08:45:34;100182.56;;;-1.38;78.31
42003;BME280;27693;50.506;30.832;2023-01-28T08:46:36;100180.68;;;-1.53;78.31
42003;BME280;27693;50.506;30.832;2023-01-28T08:47:49;100188.33;;;-1.55;78.24
42003;BME280;27693;50.506;30.832;2023-01-28T08:48:51;100179.89;;;-1.49;78.74
42003;BME280;27693;50.506;30.832;2023-01-28T08:49:53;100179.06;;;-1.47;78.53
42003;BME280;27693;50.506;30.832;2023-01-28T08:50:57;100177.45;;;-1.38;79.06
42003;BME280;27693;50.506;30.832;2023-01-28T08:52:00;100178.41;;;-1.27;79.11
42003;BME280;27693;50.506;30.832;2023-01-28T08:53:06;100178.47;;;-1.19;78.49
42003;BME280;27693;50.506;30.832;2023-01-28T08:54:08;100178.53;;;-1.13;78.51
42003;BME280;27693;50.506;30.832;2023-01-28T08:55:11;100183.63;;;-1.15;77.83
42003;BME280;27693;50.506;30.832;2023-01-28T08:56:14;100177.69;;;-1.14;77.38
42003;BME280;27693;50.506;30.832;2023-01-28T08:57:17;100170.80;;;-1.22;77.45
42003;BME280;27693;50.506;30.832;2023-01-28T08:58:19;100174.30;;;-1.13;77.44
42003;BME280;27693;50.506;30.832;2023-01-28T08:59:22;100173.45;;;-1.11;76.63
42003;BME280;27693;50.506;30.832;2023-01-28T09:00:25;100169.23;;;-1.08;76.41
42003;BME280;27693;50.506;30.832;2023-01-28T09:01:27;100164.17;;;-1.03;77.64
42003;BME280;27693;50.506;30.832;2023-01-28T09:02:31;100160.80;;;-0.98;76.89
42003;BME280;27693;50.506;30.832;2023-01-28T09:03:34;100164.22;;;-0.97;76.48
42003;BME280;27693;50.506;30.832;2023-01-28T09:04:37;100164.27;;;-0.91;76.55
42003;BME280;27693;50.506;30.832;2023-01-28T09:05:39;100154.98;;;-0.78;76.52
42003;BME280;27693;50.506;30.832;2023-01-28T09:06:42;100154.22;;;-0.68;76.48
42003;BME280;27693;50.506;30.832;2023-01-28T09:07:44;100155.06;;;-0.67;76.26
42003;BME280;27693;50.506;30.832;2023-01-28T09:08:47;100161.09;;;-0.62;75.69
42003;BME280;27693;50.506;30.832;2023-01-28T09:09:49;100149.99;;;-0.61;75.20
42003;BME280;27693;50.506;30.832;2023-01-28T09:10:58;100146.59;;;-0.61;74.48
42003;BME280;27693;50.506;30.832;2023-01-28T09:12:00;100150.03;;;-0.56;74.30
42003;BME280;27693;50.506;30.832;2023-01-28T09:13:11;100144.05;;;-0.60;74.24
42003;BME280;27693;50.506;30.832;2023-01-28T09:14:10;100149.11;;;-0.66;74.09